Time;durP1;ratioP1;P1;durP2;ratioP2;P2;SDS_P1;SDS_P2;PMS_P1;PMS_P2;Temp;Humidity;BMP_temperature;BMP_pressure;BME280_temperature;BME280_humidity;BME280_pressure;Samples;Min_cycle;Max_cycle;Signal;HPM_P1;HPM_P2
2020/12/30 00:02:27;;;;;;;51.60;31.03;;;;;;;;;;5024991;28;20275;-70
2020/12/30 00:04:52;;;;;;;53.67;30.03;;;;;;;;;;5032249;28;20247;-69
2020/12/30 00:07:18;;;;;;;56.63;28.57;;;;;;;;;;5024018;28;20213;-69
2020/12/30 00:09:43;;;;;;;47.90;27.70;;;;;;;;;;5032179;28;21209;-69
2020/12/30 00:12:08;;;;;;;55.50;28.73;;;;;;;;;;5026457;28;20204;-69
2020/12/30 00:14:34;;;;;;;58.37;29.37;;;;;;;;;;5030534;28;20228;-70
2020/12/30 00:16:59;;;;;;;49.93;28.77;;;;;;;;;;5035192;28;20288;-69
2020/12/30 00:19:24;;;;;;;46.60;27.30;;;;;;;;;;5026816;28;20190;-70
2020/12/30 00:21:49;;;;;;;49.33;29.50;;;;;;;;;;5035820;28;20201;-70
2020/12/30 00:24:15;;;;;;;51.67;27.37;;;;;;;;;;5025474;28;20537;-70
2020/12/30 00:26:40;;;;;;;50.80;27.63;;;;;;;;;;5032556;28;20212;-70
2020/12/30 00:29:06;;;;;;;49.33;27.13;;;;;;;;;;5028080;28;20186;-70
2020/12/30 00:31:32;;;;;;;46.37;27.10;;;;;;;;;;5040410;28;20177;-70
2020/12/30 00:33:58;;;;;;;51.90;27.30;;;;;;;;;;5030118;28;20285;-70
2020/12/30 00:36:23;;;;;;;44.90;26.93;;;;;;;;;;5040753;28;20251;-70
2020/12/30 00:38:48;;;;;;;50.87;26.40;;;;;;;;;;5028357;28;20324;-70
2020/12/30 00:41:14;;;;;;;48.57;25.83;;;;;;;;;;5037063;28;20229;-70
2020/12/30 00:43:40;;;;;;;47.93;25.70;;;;;;;;;;5038882;28;20212;-70
2020/12/30 00:46:05;;;;;;;44.20;26.27;;;;;;;;;;5032558;28;20208;-70
2020/12/30 00:48:30;;;;;;;46.07;26.37;;;;;;;;;;5035359;28;20184;-70
2020/12/30 00:50:56;;;;;;;41.30;24.93;;;;;;;;;;5032365;28;20436;-70
2020/12/30 00:53:21;;;;;;;42.27;25.27;;;;;;;;;;5038031;28;20649;-70
2020/12/30 00:55:46;;;;;;;43.57;24.23;;;;;;;;;;5028245;28;20405;-70
2020/12/30 00:58:12;;;;;;;46.00;25.77;;;;;;;;;;5038789;28;20197;-70
2020/12/30 01:00:39;;;;;;;50.43;25.03;;;;;;;;;;5030453;28;20545;-70
2020/12/30 01:03:04;;;;;;;48.63;25.20;;;;;;;;;;5037802;28;20213;-70
2020/12/30 01:05:29;;;;;;;45.93;24.10;;;;;;;;;;5027890;28;23685;-70
2020/12/30 01:07:55;;;;;;;45.30;24.67;;;;;;;;;;5036989;28;21595;-70
2020/12/30 01:10:20;;;;;;;44.00;24.30;;;;;;;;;;5036133;28;20204;-70
2020/12/30 01:12:45;;;;;;;43.43;24.73;;;;;;;;;;5027654;28;20198;-70
2020/12/30 01:15:10;;;;;;;37.47;22.93;;;;;;;;;;5038990;28;20280;-70
2020/12/30 01:17:36;;;;;;;39.80;23.47;;;;;;;;;;5030956;28;20248;-70
2020/12/30 01:20:02;;;;;;;43.63;24.10;;;;;;;;;;5039069;28;20276;-70
2020/12/30 01:22:27;;;;;;;47.23;23.97;;;;;;;;;;5029828;28;20185;-70
2020/12/30 01:24:52;;;;;;;45.70;24.40;;;;;;;;;;5037404;28;20185;-70
2020/12/30 01:27:18;;;;;;;41.57;23.20;;;;;;;;;;5030013;28;20716;-70
2020/12/30 01:29:43;;;;;;;41.13;24.03;;;;;;;;;;5038335;28;20258;-70
2020/12/30 01:32:08;;;;;;;44.63;25.47;;;;;;;;;;5030519;28;20205;-70
2020/12/30 01:34:34;;;;;;;41.93;23.97;;;;;;;;;;5037092;28;20954;-70
2020/12/30 01:36:59;;;;;;;48.47;25.00;;;;;;;;;;5032885;28;20225;-70
2020/12/30 01:39:24;;;;;;;45.83;25.17;;;;;;;;;;5035590;28;21074;-70
2020/12/30 01:41:50;;;;;;;47.47;25.67;;;;;;;;;;5037794;28;20637;-70
2020/12/30 01:44:15;;;;;;;43.13;23.70;;;;;;;;;;5029677;28;20223;-70
2020/12/30 01:46:43;;;;;;;42.70;25.50;;;;;;;;;;5037010;28;20193;-70
2020/12/30 01:49:14;;;;;;;42.73;24.27;;;;;;;;;;5029700;28;20193;-70
2020/12/30 01:51:41;;;;;;;48.67;25.20;;;;;;;;;;5035907;28;20284;-70
2020/12/30 01:54:14;;;;;;;39.37;24.83;;;;;;;;;;5029528;28;20618;-71
2020/12/30 01:56:41;;;;;;;47.63;26.20;;;;;;;;;;5036110;28;20177;-70
2020/12/30 01:59:08;;;;;;;46.37;25.93;;;;;;;;;;5030328;28;20267;-68
2020/12/30 02:01:39;;;;;;;44.63;25.47;;;;;;;;;;5038602;28;20656;-68
2020/12/30 02:04:06;;;;;;;47.53;25.27;;;;;;;;;;5028778;28;20189;-70
2020/12/30 02:06:32;;;;;;;46.27;24.57;;;;;;;;;;5038323;28;20567;-70
2020/12/30 02:08:58;;;;;;;46.80;26.03;;;;;;;;;;5025504;28;20225;-70
2020/12/30 02:11:25;;;;;;;51.13;25.60;;;;;;;;;;5039245;28;20322;-70
2020/12/30 02:14:08;;;;;;;49.07;26.00;;;;;;;;;;5036303;28;20196;-70
2020/12/30 02:16:47;;;;;;;50.23;27.47;;;;;;;;;;5039104;28;20186;-71
2020/12/30 02:19:12;;;;;;;50.40;27.40;;;;;;;;;;5030769;28;20746;-70
2020/12/30 02:21:37;;;;;;;52.87;27.50;;;;;;;;;;5035306;28;20217;-70
2020/12/30 02:24:03;;;;;;;45.40;26.43;;;;;;;;;;5035503;28;20190;-70
2020/12/30 02:26:28;;;;;;;53.93;27.30;;;;;;;;;;5028768;28;20255;-70
2020/12/30 02:28:53;;;;;;;55.23;28.33;;;;;;;;;;5036749;28;20193;-70
2020/12/30 02:31:19;;;;;;;53.60;28.43;;;;;;;;;;5028546;28;20215;-70
2020/12/30 02:33:44;;;;;;;56.70;28.70;;;;;;;;;;5036238;28;20197;-70
2020/12/30 02:36:09;;;;;;;55.40;28.80;;;;;;;;;;5029236;28;20704;-70
2020/12/30 02:38:35;;;;;;;51.47;28.63;;;;;;;;;;5034447;28;20199;-68
2020/12/30 02:41:00;;;;;;;52.13;28.07;;;;;;;;;;5026549;28;20543;-69
2020/12/30 02:43:26;;;;;;;51.43;28.20;;;;;;;;;;5036940;28;20284;-69
2020/12/30 02:45:51;;;;;;;57.93;29.93;;;;;;;;;;5029525;28;20203;-69
2020/12/30 02:48:16;;;;;;;54.00;29.93;;;;;;;;;;5036860;28;20718;-69
2020/12/30 02:50:42;;;;;;;63.70;29.53;;;;;;;;;;5037569;28;20648;-69
2020/12/30 02:53:07;;;;;;;54.63;29.73;;;;;;;;;;5028056;28;20295;-69
2020/12/30 02:55:32;;;;;;;50.03;27.63;;;;;;;;;;5037149;28;20322;-69
2020/12/30 02:57:57;;;;;;;52.30;28.50;;;;;;;;;;5024994;28;20213;-69
2020/12/30 03:00:23;;;;;;;49.50;28.43;;;;;;;;;;5039884;28;20181;-69
2020/12/30 03:02:48;;;;;;;53.20;28.80;;;;;;;;;;5026604;28;21154;-69
2020/12/30 03:05:13;;;;;;;51.27;28.87;;;;;;;;;;5036876;28;20180;-69
2020/12/30 03:07:39;;;;;;;54.17;29.33;;;;;;;;;;5028457;28;20217;-69
2020/12/30 03:10:04;;;;;;;54.47;28.93;;;;;;;;;;5037852;28;20203;-69
2020/12/30 03:12:29;;;;;;;52.27;28.47;;;;;;;;;;5027611;28;20185;-69
2020/12/30 03:14:55;;;;;;;50.13;27.83;;;;;;;;;;5037200;28;20560;-69
2020/12/30 03:17:20;;;;;;;48.93;28.23;;;;;;;;;;5034610;28;20205;-71
2020/12/30 03:19:45;;;;;;;53.50;27.77;;;;;;;;;;5031289;28;20197;-69
2020/12/30 03:22:10;;;;;;;48.73;27.27;;;;;;;;;;5036433;28;20197;-69
2020/12/30 03:24:36;;;;;;;55.57;28.43;;;;;;;;;;5028740;28;20232;-69
2020/12/30 03:27:01;;;;;;;58.80;27.57;;;;;;;;;;5035622;28;20195;-69
2020/12/30 03:29:26;;;;;;;50.93;27.90;;;;;;;;;;5026269;28;20607;-69
2020/12/30 03:31:52;;;;;;;51.93;27.40;;;;;;;;;;5035081;28;20240;-69
2020/12/30 03:34:17;;;;;;;50.00;27.83;;;;;;;;;;5026817;28;20410;-69
2020/12/30 03:36:43;;;;;;;46.43;26.57;;;;;;;;;;5034357;28;20228;-69
2020/12/30 03:39:08;;;;;;;44.23;26.53;;;;;;;;;;5029230;28;20200;-69
2020/12/30 03:41:33;;;;;;;46.13;26.23;;;;;;;;;;5034017;28;20201;-69
2020/12/30 03:43:58;;;;;;;48.00;27.57;;;;;;;;;;5027905;28;20228;-69
2020/12/30 03:46:24;;;;;;;57.10;28.90;;;;;;;;;;5036020;28;20197;-69
2020/12/30 03:48:49;;;;;;;51.33;28.07;;;;;;;;;;5037548;28;20185;-69
2020/12/30 03:51:14;;;;;;;51.90;29.10;;;;;;;;;;5024640;28;20504;-69
2020/12/30 03:53:40;;;;;;;52.73;29.53;;;;;;;;;;5037516;28;20224;-69
2020/12/30 03:56:05;;;;;;;58.17;28.97;;;;;;;;;;5027701;28;20235;-69
2020/12/30 03:58:30;;;;;;;51.50;28.93;;;;;;;;;;5036794;28;20233;-69
2020/12/30 04:00:56;;;;;;;52.97;29.33;;;;;;;;;;5026587;28;20360;-69
2020/12/30 04:03:21;;;;;;;54.50;28.80;;;;;;;;;;5037536;28;20298;-69
2020/12/30 04:05:49;;;;;;;53.67;29.30;;;;;;;;;;5027956;28;20247;-69
2020/12/30 04:08:14;;;;;;;54.37;29.67;;;;;;;;;;5041290;28;20193;-69
2020/12/30 04:10:40;;;;;;;53.83;29.67;;;;;;;;;;5030343;28;20193;-69
2020/12/30 04:13:05;;;;;;;59.23;30.30;;;;;;;;;;5040996;28;20758;-69
2020/12/30 04:15:30;;;;;;;56.80;29.97;;;;;;;;;;5040177;28;20224;-69
2020/12/30 04:17:56;;;;;;;57.97;30.33;;;;;;;;;;5031752;28;20232;-69
2020/12/30 04:20:21;;;;;;;58.87;30.97;;;;;;;;;;5040847;28;20189;-69
2020/12/30 04:22:46;;;;;;;58.27;29.97;;;;;;;;;;5029239;28;20280;-69
2020/12/30 04:25:12;;;;;;;62.63;30.93;;;;;;;;;;5041488;28;20692;-69
2020/12/30 04:27:37;;;;;;;64.80;31.40;;;;;;;;;;5026562;28;20665;-69
2020/12/30 04:30:03;;;;;;;63.77;31.83;;;;;;;;;;5039897;28;20197;-69
2020/12/30 04:32:29;;;;;;;56.03;31.37;;;;;;;;;;5030569;28;20189;-69
2020/12/30 04:34:54;;;;;;;58.40;30.67;;;;;;;;;;5038201;28;20873;-69
2020/12/30 04:37:19;;;;;;;56.60;31.13;;;;;;;;;;5029674;28;20213;-69
2020/12/30 04:39:45;;;;;;;65.63;30.83;;;;;;;;;;5039206;28;20708;-69
2020/12/30 04:42:12;;;;;;;59.27;30.90;;;;;;;;;;5030915;28;20193;-69
2020/12/30 04:44:42;;;;;;;59.20;31.00;;;;;;;;;;5039353;28;20203;-69
2020/12/30 04:47:08;;;;;;;59.33;31.30;;;;;;;;;;5039624;28;20193;-69
2020/12/30 04:49:33;;;;;;;66.23;33.43;;;;;;;;;;5030246;28;20536;-69
2020/12/30 04:51:59;;;;;;;61.00;33.73;;;;;;;;;;5039648;28;20315;-69
2020/12/30 04:54:25;;;;;;;65.07;32.07;;;;;;;;;;5030866;28;20535;-69
2020/12/30 04:56:58;;;;;;;61.23;32.50;;;;;;;;;;5039634;28;20625;-69
2020/12/30 04:59:35;;;;;;;58.40;31.53;;;;;;;;;;5030720;28;20243;-69
2020/12/30 05:02:06;;;;;;;62.07;32.40;;;;;;;;;;5039947;28;20201;-69
2020/12/30 05:04:35;;;;;;;61.93;32.10;;;;;;;;;;5031589;28;20236;-69
2020/12/30 05:07:12;;;;;;;60.87;32.23;;;;;;;;;;5038273;28;20205;-69
2020/12/30 05:09:39;;;;;;;61.47;31.97;;;;;;;;;;5029353;28;20270;-69
2020/12/30 05:12:18;;;;;;;65.33;31.97;;;;;;;;;;5038822;28;20185;-69
2020/12/30 05:14:44;;;;;;;58.47;31.33;;;;;;;;;;5028717;28;20201;-69
2020/12/30 05:17:11;;;;;;;62.13;31.50;;;;;;;;;;5036432;28;20222;-68
2020/12/30 05:19:37;;;;;;;60.43;32.27;;;;;;;;;;5028877;28;20205;-69
2020/12/30 05:22:03;;;;;;;66.50;32.60;;;;;;;;;;5039212;28;20216;-69
2020/12/30 05:24:28;;;;;;;64.63;33.50;;;;;;;;;;5031479;28;20197;-69
2020/12/30 05:26:55;;;;;;;57.70;31.90;;;;;;;;;;5038332;28;20640;-69
2020/12/30 05:29:22;;;;;;;65.70;33.60;;;;;;;;;;5040874;28;20196;-69
2020/12/30 05:31:51;;;;;;;66.33;34.23;;;;;;;;;;5027621;28;20185;-69
2020/12/30 05:34:18;;;;;;;63.30;33.00;;;;;;;;;;5040272;28;20641;-69
2020/12/30 05:36:45;;;;;;;56.63;31.10;;;;;;;;;;5027121;28;20233;-69
2020/12/30 05:39:21;;;;;;;64.20;33.07;;;;;;;;;;5039568;28;20186;-69
2020/12/30 05:41:47;;;;;;;55.73;31.27;;;;;;;;;;5028835;28;20193;-69
2020/12/30 05:44:17;;;;;;;59.63;32.03;;;;;;;;;;5040300;28;20720;-69
2020/12/30 05:46:43;;;;;;;56.83;29.87;;;;;;;;;;5028192;28;20231;-69
2020/12/30 05:49:08;;;;;;;62.00;32.00;;;;;;;;;;5039494;28;20185;-69
2020/12/30 05:51:33;;;;;;;59.17;30.63;;;;;;;;;;5027926;28;20193;-69
2020/12/30 05:54:10;;;;;;;61.90;32.93;;;;;;;;;;5040046;28;20249;-69
2020/12/30 05:56:36;;;;;;;55.77;30.60;;;;;;;;;;5028715;28;20216;-69
2020/12/30 05:59:03;;;;;;;50.80;28.33;;;;;;;;;;5038912;28;20607;-69
2020/12/30 06:01:28;;;;;;;56.93;31.00;;;;;;;;;;5027518;28;20186;-69
2020/12/30 06:03:55;;;;;;;60.47;30.53;;;;;;;;;;5040967;28;20192;-69
2020/12/30 06:06:21;;;;;;;57.97;30.70;;;;;;;;;;5038024;28;20255;-69
2020/12/30 06:08:49;;;;;;;59.70;31.57;;;;;;;;;;5030067;28;20272;-69
2020/12/30 06:11:23;;;;;;;58.27;30.03;;;;;;;;;;5038408;28;20725;-69
2020/12/30 06:13:51;;;;;;;60.53;31.67;;;;;;;;;;5026275;28;20903;-69
2020/12/30 06:16:19;;;;;;;60.03;31.17;;;;;;;;;;5037950;28;20235;-69
2020/12/30 06:18:45;;;;;;;56.30;30.40;;;;;;;;;;5028278;28;20699;-69
2020/12/30 06:21:15;;;;;;;55.87;31.03;;;;;;;;;;5035038;28;20202;-69
2020/12/30 06:23:42;;;;;;;58.87;30.97;;;;;;;;;;5028628;28;20235;-69
2020/12/30 06:26:17;;;;;;;54.10;29.73;;;;;;;;;;5038804;28;20272;-69
2020/12/30 06:28:48;;;;;;;56.80;30.30;;;;;;;;;;5024647;28;20208;-69
2020/12/30 06:31:15;;;;;;;58.10;30.83;;;;;;;;;;5036772;28;20173;-69
2020/12/30 06:33:40;;;;;;;62.43;31.27;;;;;;;;;;5028277;28;20182;-69
2020/12/30 06:36:05;;;;;;;59.07;30.87;;;;;;;;;;5037870;28;20228;-69
2020/12/30 06:38:31;;;;;;;55.07;30.40;;;;;;;;;;5028420;28;20220;-69
2020/12/30 06:41:01;;;;;;;60.53;30.87;;;;;;;;;;5035289;28;20193;-69
2020/12/30 06:43:39;;;;;;;59.50;31.93;;;;;;;;;;5037491;28;20339;-69
2020/12/30 06:46:05;;;;;;;62.50;31.10;;;;;;;;;;5036679;28;20529;-69
2020/12/30 06:48:30;;;;;;;58.53;32.00;;;;;;;;;;5036142;28;20247;-69
2020/12/30 06:51:15;;;;;;;64.37;32.67;;;;;;;;;;5027592;28;20649;-69
2020/12/30 06:53:48;;;;;;;57.87;31.57;;;;;;;;;;5033483;28;20177;-69
2020/12/30 06:56:14;;;;;;;59.40;31.80;;;;;;;;;;5026685;28;20189;-69
2020/12/30 06:58:43;;;;;;;61.03;32.20;;;;;;;;;;5035851;28;20213;-69
2020/12/30 07:01:10;;;;;;;58.40;31.10;;;;;;;;;;5029772;28;20189;-69
2020/12/30 07:03:35;;;;;;;62.40;31.23;;;;;;;;;;5034227;28;20260;-69
2020/12/30 07:06:30;;;;;;;61.90;32.80;;;;;;;;;;5030339;28;20789;-69
2020/12/30 07:09:06;;;;;;;59.80;31.77;;;;;;;;;;5035624;28;20192;-69
2020/12/30 07:11:40;;;;;;;58.93;31.70;;;;;;;;;;5027932;28;20664;-69
2020/12/30 07:14:23;;;;;;;58.93;31.63;;;;;;;;;;5034348;28;20276;-69
2020/12/30 07:16:56;;;;;;;60.57;31.43;;;;;;;;;;5026578;28;20189;-69
2020/12/30 07:19:24;;;;;;;62.83;33.00;;;;;;;;;;5036131;28;20201;-69
2020/12/30 07:22:02;;;;;;;61.40;32.80;;;;;;;;;;5025655;28;20186;-69
2020/12/30 07:24:39;;;;;;;60.98;31.03;;;;;;;;;;4551607;28;10002884;-69
2020/12/30 07:27:07;;;;;;;59.67;32.30;;;;;;;;;;5020294;28;20228;-69
2020/12/30 07:29:33;;;;;;;58.07;32.07;;;;;;;;;;5031620;28;20270;-69
2020/12/30 07:32:05;;;;;;;54.13;31.23;;;;;;;;;;5025711;28;20285;-69
2020/12/30 07:34:32;;;;;;;55.87;30.30;;;;;;;;;;5032855;28;20216;-69
2020/12/30 07:36:58;;;;;;;54.20;31.87;;;;;;;;;;5023196;28;20595;-69
2020/12/30 07:39:30;;;;;;;53.67;30.87;;;;;;;;;;5030454;28;20193;-69
2020/12/30 07:41:56;;;;;;;56.57;31.90;;;;;;;;;;5024119;28;21537;-69
2020/12/30 07:44:22;;;;;;;61.37;32.90;;;;;;;;;;5032717;28;20698;-69
2020/12/30 07:46:48;;;;;;;54.67;30.33;;;;;;;;;;5032279;28;20242;-69
2020/12/30 07:49:16;;;;;;;57.33;30.97;;;;;;;;;;5023341;28;20211;-69
2020/12/30 07:51:49;;;;;;;56.80;31.17;;;;;;;;;;5029553;28;20193;-69
2020/12/30 07:54:16;;;;;;;56.93;31.20;;;;;;;;;;5025211;28;20700;-69
2020/12/30 07:56:42;;;;;;;57.70;32.03;;;;;;;;;;5032018;28;20784;-69
2020/12/30 07:59:08;;;;;;;56.27;32.20;;;;;;;;;;5023872;28;20200;-69
2020/12/30 08:01:33;;;;;;;58.87;31.37;;;;;;;;;;5030429;28;20189;-69
2020/12/30 08:04:08;;;;;;;55.90;30.33;;;;;;;;;;5018913;28;20196;-69
2020/12/30 08:06:43;;;;;;;63.27;33.23;;;;;;;;;;5026914;28;20204;-69
2020/12/30 08:09:08;;;;;;;55.90;31.07;;;;;;;;;;5021505;28;20192;-69
2020/12/30 08:11:33;;;;;;;53.47;31.57;;;;;;;;;;5030894;28;20535;-69
2020/12/30 08:14:08;;;;;;;54.47;32.03;;;;;;;;;;5022555;28;20207;-69
2020/12/30 08:16:34;;;;;;;52.63;31.03;;;;;;;;;;5030608;28;20284;-69
2020/12/30 08:19:00;;;;;;;54.87;31.53;;;;;;;;;;5024099;28;20223;-69
2020/12/30 08:21:25;;;;;;;54.83;31.07;;;;;;;;;;5030112;28;20751;-69
2020/12/30 08:24:09;;;;;;;57.23;31.67;;;;;;;;;;5032846;28;20185;-69
2020/12/30 08:26:36;;;;;;;51.23;29.93;;;;;;;;;;5028806;28;20197;-69
2020/12/30 08:29:03;;;;;;;57.03;31.30;;;;;;;;;;5031618;28;20264;-70
2020/12/30 08:31:43;;;;;;;55.53;31.57;;;;;;;;;;5022586;28;20197;-69
2020/12/30 08:34:10;;;;;;;53.47;30.80;;;;;;;;;;5031582;28;20288;-69
2020/12/30 08:36:40;;;;;;;51.93;30.63;;;;;;;;;;5021815;28;20237;-70
2020/12/30 08:39:07;;;;;;;56.50;31.03;;;;;;;;;;5031606;28;20445;-69
2020/12/30 08:41:47;;;;;;;55.00;31.03;;;;;;;;;;5018618;28;20251;-69
2020/12/30 08:44:18;;;;;;;52.77;29.63;;;;;;;;;;5031905;28;20619;-69
2020/12/30 08:46:49;;;;;;;51.43;28.90;;;;;;;;;;5022133;28;20208;-69
2020/12/30 08:49:17;;;;;;;52.80;31.10;;;;;;;;;;5029210;28;20560;-69
2020/12/30 08:51:43;;;;;;;49.87;28.37;;;;;;;;;;5024426;28;20540;-69
2020/12/30 08:54:13;;;;;;;51.67;28.37;;;;;;;;;;5035583;28;20255;-69
2020/12/30 08:56:41;;;;;;;48.00;28.53;;;;;;;;;;5025401;28;20202;-69
2020/12/30 08:59:06;;;;;;;42.30;25.20;;;;;;;;;;5033909;28;20204;-71
2020/12/30 09:01:32;;;;;;;43.37;26.23;;;;;;;;;;5026566;28;20201;-71
2020/12/30 09:04:11;;;;;;;48.40;26.57;;;;;;;;;;5035304;28;20643;-70
2020/12/30 09:06:37;;;;;;;45.70;27.57;;;;;;;;;;5024477;28;21212;-71
2020/12/30 09:09:10;;;;;;;46.97;27.27;;;;;;;;;;5036087;28;20189;-71
2020/12/30 09:11:44;;;;;;;45.60;26.93;;;;;;;;;;5025403;28;20267;-71
2020/12/30 09:14:23;;;;;;;44.40;25.87;;;;;;;;;;5032944;28;20617;-71
2020/12/30 09:17:00;;;;;;;41.60;25.23;;;;;;;;;;5029222;28;20242;-71
2020/12/30 09:19:27;;;;;;;38.93;24.47;;;;;;;;;;5033032;28;20635;-71
2020/12/30 09:22:05;;;;;;;40.63;24.60;;;;;;;;;;5032829;28;20189;-71
2020/12/30 09:24:41;;;;;;;37.37;23.20;;;;;;;;;;5032514;28;20189;-71
2020/12/30 09:27:20;;;;;;;37.47;23.23;;;;;;;;;;5033159;28;20165;-71
2020/12/30 09:30:15;;;;;;;40.10;23.40;;;;;;;;;;5032460;28;20197;-71
2020/12/30 09:32:42;;;;;;;33.53;20.83;;;;;;;;;;5026909;28;20190;-71
2020/12/30 09:35:10;;;;;;;34.03;21.33;;;;;;;;;;5033891;28;20217;-71
2020/12/30 09:37:35;;;;;;;32.40;21.07;;;;;;;;;;5035358;28;20217;-71
2020/12/30 09:40:12;;;;;;;33.00;21.17;;;;;;;;;;5021810;28;20193;-71
2020/12/30 09:42:40;;;;;;;32.17;20.80;;;;;;;;;;5034438;28;20202;-71
2020/12/30 09:45:10;;;;;;;32.90;20.63;;;;;;;;;;5026816;28;20208;-70
2020/12/30 09:47:37;;;;;;;34.13;20.63;;;;;;;;;;5034699;28;21074;-70
2020/12/30 09:50:04;;;;;;;32.43;20.57;;;;;;;;;;5025208;28;20251;-70
2020/12/30 09:52:42;;;;;;;38.53;22.13;;;;;;;;;;5034371;28;20196;-70
2020/12/30 09:55:09;;;;;;;30.87;20.70;;;;;;;;;;5026139;28;20189;-71
2020/12/30 09:57:35;;;;;;;30.60;20.17;;;;;;;;;;5029344;28;20672;-71
2020/12/30 10:00:01;;;;;;;31.33;19.20;;;;;;;;;;5027846;28;20211;-71
2020/12/30 10:02:27;;;;;;;35.50;21.70;;;;;;;;;;5031256;28;20201;-69
2020/12/30 10:04:52;;;;;;;34.53;21.13;;;;;;;;;;5025107;28;20719;-70
2020/12/30 10:07:18;;;;;;;33.47;21.33;;;;;;;;;;5036606;28;20255;-69
2020/12/30 10:09:43;;;;;;;40.27;23.03;;;;;;;;;;5024153;28;20208;-70
2020/12/30 10:12:09;;;;;;;46.87;28.33;;;;;;;;;;5032755;28;20224;-71
2020/12/30 10:14:35;;;;;;;46.13;31.77;;;;;;;;;;5031830;28;20254;-70
2020/12/30 10:17:00;;;;;;;42.90;27.00;;;;;;;;;;5025841;28;20204;-70
2020/12/30 10:19:26;;;;;;;39.95;24.45;;;;;;;;;;5032710;28;20498;-70
2020/12/30 10:21:51;;;;;;;41.67;26.07;;;;;;;;;;5023530;28;20279;-70
2020/12/30 10:24:17;;;;;;;44.90;28.80;;;;;;;;;;5035663;28;20598;-70
2020/12/30 10:26:42;;;;;;;37.07;22.37;;;;;;;;;;5008454;28;20190;-70
2020/12/30 10:29:08;;;;;;;35.00;21.57;;;;;;;;;;5034043;28;20200;-70
2020/12/30 10:31:33;;;;;;;34.37;22.47;;;;;;;;;;5027376;28;20190;-70
2020/12/30 10:33:58;;;;;;;33.47;22.00;;;;;;;;;;5036079;28;20641;-70
2020/12/30 10:36:29;;;;;;;39.80;23.87;;;;;;;;;;5025386;28;20264;-70
2020/12/30 10:38:56;;;;;;;37.57;22.67;;;;;;;;;;5035844;28;20194;-70
2020/12/30 10:41:22;;;;;;;37.53;24.83;;;;;;;;;;5028772;28;20197;-70
2020/12/30 10:43:47;;;;;;;39.53;23.87;;;;;;;;;;5033013;28;20645;-70
2020/12/30 10:46:16;;;;;;;34.90;22.40;;;;;;;;;;5032065;28;20193;-70
2020/12/30 10:48:46;;;;;;;36.70;23.73;;;;;;;;;;5028178;28;20213;-70
2020/12/30 10:51:16;;;;;;;38.20;23.07;;;;;;;;;;5034611;28;20250;-70
2020/12/30 10:53:42;;;;;;;32.90;21.90;;;;;;;;;;5026820;28;20194;-71
2020/12/30 10:56:09;;;;;;;37.80;22.70;;;;;;;;;;5034194;28;20193;-69
2020/12/30 10:58:35;;;;;;;38.27;22.90;;;;;;;;;;5026990;28;20220;-69
2020/12/30 11:01:00;;;;;;;34.80;20.83;;;;;;;;;;5036082;28;20645;-69
2020/12/30 11:03:26;;;;;;;34.90;20.03;;;;;;;;;;5027826;28;20193;-69
2020/12/30 11:05:51;;;;;;;30.17;19.50;;;;;;;;;;5036189;28;20423;-69
2020/12/30 11:08:16;;;;;;;30.10;20.00;;;;;;;;;;5028589;28;20181;-69
2020/12/30 11:10:42;;;;;;;31.20;20.10;;;;;;;;;;5034737;28;20206;-69
2020/12/30 11:13:07;;;;;;;31.13;19.13;;;;;;;;;;5029061;28;20221;-69
2020/12/30 11:15:35;;;;;;;30.40;19.03;;;;;;;;;;5029333;28;20575;-69
2020/12/30 11:18:03;;;;;;;30.00;19.30;;;;;;;;;;5034816;28;20205;-69
2020/12/30 11:20:28;;;;;;;31.23;18.90;;;;;;;;;;5026759;28;20196;-69
2020/12/30 11:22:54;;;;;;;30.37;18.40;;;;;;;;;;5035831;28;20199;-69
2020/12/30 11:25:19;;;;;;;29.97;19.37;;;;;;;;;;5025553;28;20258;-69
2020/12/30 11:27:44;;;;;;;32.43;18.53;;;;;;;;;;5035509;28;20169;-70
2020/12/30 11:30:10;;;;;;;29.03;17.40;;;;;;;;;;5027702;28;20589;-70
2020/12/30 11:32:35;;;;;;;28.27;18.03;;;;;;;;;;5040663;28;20191;-70
2020/12/30 11:35:00;;;;;;;27.53;17.17;;;;;;;;;;5025669;28;20197;-69
2020/12/30 11:37:26;;;;;;;25.60;16.97;;;;;;;;;;5035364;28;20201;-69
2020/12/30 11:39:51;;;;;;;32.80;19.53;;;;;;;;;;5024273;28;20201;-69
2020/12/30 11:42:16;;;;;;;28.47;17.47;;;;;;;;;;5038305;28;20485;-70
2020/12/30 11:44:42;;;;;;;26.67;17.20;;;;;;;;;;5034152;28;20224;-70
2020/12/30 11:47:07;;;;;;;30.23;17.47;;;;;;;;;;5026384;28;20606;-70
2020/12/30 11:49:32;;;;;;;26.33;17.60;;;;;;;;;;5032078;28;20193;-69
2020/12/30 11:51:58;;;;;;;29.20;16.63;;;;;;;;;;5024630;28;20231;-70
2020/12/30 11:54:23;;;;;;;25.67;16.37;;;;;;;;;;5032602;28;20189;-70
2020/12/30 11:56:48;;;;;;;27.67;17.33;;;;;;;;;;5024407;28;20193;-69
2020/12/30 11:59:14;;;;;;;27.13;17.43;;;;;;;;;;5033033;28;20199;-70
2020/12/30 12:01:39;;;;;;;26.53;17.03;;;;;;;;;;5025922;28;20276;-70
2020/12/30 12:04:04;;;;;;;27.47;16.40;;;;;;;;;;5033795;28;20717;-70
2020/12/30 12:06:30;;;;;;;25.70;16.57;;;;;;;;;;5024519;28;20225;-70
2020/12/30 12:08:55;;;;;;;25.47;16.43;;;;;;;;;;5034443;28;20191;-70
2020/12/30 12:11:20;;;;;;;23.80;16.93;;;;;;;;;;5025355;28;20464;-70
2020/12/30 12:13:46;;;;;;;25.63;16.57;;;;;;;;;;5033561;28;20330;-69
2020/12/30 12:16:12;;;;;;;24.50;16.53;;;;;;;;;;5034719;28;20207;-70
2020/12/30 12:18:38;;;;;;;22.77;16.10;;;;;;;;;;5024385;28;20217;-69
2020/12/30 12:21:03;;;;;;;23.17;16.43;;;;;;;;;;5036033;28;21515;-69
2020/12/30 12:23:29;;;;;;;25.50;15.67;;;;;;;;;;5026266;28;20569;-69
2020/12/30 12:25:54;;;;;;;23.27;15.37;;;;;;;;;;5038983;28;20242;-69
2020/12/30 12:28:35;;;;;;;22.43;15.63;;;;;;;;;;5028815;28;20545;-69
2020/12/30 12:31:00;;;;;;;27.97;15.67;;;;;;;;;;5039967;28;20204;-69
2020/12/30 12:33:26;;;;;;;22.50;15.30;;;;;;;;;;5029011;28;20189;-70
2020/12/30 12:35:51;;;;;;;23.53;16.40;;;;;;;;;;5036575;28;20751;-70
2020/12/30 12:38:16;;;;;;;23.70;15.90;;;;;;;;;;5025168;28;20569;-70
2020/12/30 12:40:42;;;;;;;21.70;15.97;;;;;;;;;;5033913;28;20201;-69
2020/12/30 12:43:07;;;;;;;23.40;15.67;;;;;;;;;;5028971;28;20215;-69
2020/12/30 12:45:33;;;;;;;24.10;15.33;;;;;;;;;;5035150;28;20189;-70
2020/12/30 12:47:58;;;;;;;22.67;15.30;;;;;;;;;;5035271;28;20781;-70
2020/12/30 12:50:23;;;;;;;21.47;14.03;;;;;;;;;;5029883;28;20186;-70
2020/12/30 12:52:49;;;;;;;23.73;13.87;;;;;;;;;;5037744;28;20197;-70
2020/12/30 12:55:14;;;;;;;21.70;14.03;;;;;;;;;;5027934;28;20197;-70
2020/12/30 12:57:39;;;;;;;20.17;13.00;;;;;;;;;;5037829;28;20954;-70
2020/12/30 13:00:05;;;;;;;19.83;13.50;;;;;;;;;;5027681;28;20315;-70
2020/12/30 13:02:30;;;;;;;18.63;13.37;;;;;;;;;;5037030;28;20957;-70
2020/12/30 13:04:55;;;;;;;19.93;12.73;;;;;;;;;;5029614;28;20220;-70
2020/12/30 13:07:21;;;;;;;26.13;13.87;;;;;;;;;;5036515;28;20823;-70
2020/12/30 13:09:46;;;;;;;18.77;12.93;;;;;;;;;;5031639;28;21310;-70
2020/12/30 13:12:12;;;;;;;21.63;14.30;;;;;;;;;;5038526;28;20201;-70
2020/12/30 13:14:37;;;;;;;19.63;13.67;;;;;;;;;;5033206;28;20193;-70
2020/12/30 13:17:03;;;;;;;24.50;14.40;;;;;;;;;;5036498;28;20190;-70
2020/12/30 13:19:28;;;;;;;19.77;13.40;;;;;;;;;;5039731;28;20205;-70
2020/12/30 13:21:53;;;;;;;21.23;13.50;;;;;;;;;;5029618;28;20223;-70
2020/12/30 13:24:19;;;;;;;21.00;13.30;;;;;;;;;;5039697;28;20232;-70
2020/12/30 13:26:44;;;;;;;20.63;13.40;;;;;;;;;;5026096;28;20193;-70
2020/12/30 13:29:10;;;;;;;21.80;14.33;;;;;;;;;;5039404;28;20225;-70
2020/12/30 13:31:35;;;;;;;21.70;14.73;;;;;;;;;;5029284;28;20243;-70
2020/12/30 13:34:01;;;;;;;22.03;14.87;;;;;;;;;;5038724;28;21660;-70
2020/12/30 13:36:27;;;;;;;20.63;13.67;;;;;;;;;;5030076;28;20237;-70
2020/12/30 13:38:55;;;;;;;24.63;15.13;;;;;;;;;;5036830;28;20304;-70
2020/12/30 13:41:21;;;;;;;22.40;14.27;;;;;;;;;;5029967;28;20185;-70
2020/12/30 13:43:47;;;;;;;22.37;14.93;;;;;;;;;;5035106;28;20189;-70
2020/12/30 13:46:13;;;;;;;21.37;13.97;;;;;;;;;;5033171;28;20189;-70
2020/12/30 13:48:38;;;;;;;22.10;14.33;;;;;;;;;;5027967;28;20264;-70
2020/12/30 13:51:04;;;;;;;21.43;13.60;;;;;;;;;;5034329;28;20626;-70
2020/12/30 13:53:30;;;;;;;21.53;13.87;;;;;;;;;;5029540;28;20212;-70
2020/12/30 13:55:55;;;;;;;23.83;14.33;;;;;;;;;;5032529;28;20185;-69
2020/12/30 13:58:21;;;;;;;23.13;15.00;;;;;;;;;;5029580;28;20236;-69
2020/12/30 14:00:46;;;;;;;21.50;14.53;;;;;;;;;;5035882;28;20547;-70
2020/12/30 14:03:11;;;;;;;18.07;13.43;;;;;;;;;;5025683;28;20605;-70
2020/12/30 14:05:37;;;;;;;20.43;12.80;;;;;;;;;;5030892;28;20193;-70
2020/12/30 14:08:04;;;;;;;17.90;12.13;;;;;;;;;;5025449;28;20281;-70
2020/12/30 14:10:29;;;;;;;18.60;12.73;;;;;;;;;;5037506;28;20265;-70
2020/12/30 14:12:55;;;;;;;15.97;11.77;;;;;;;;;;5027359;28;20201;-70
2020/12/30 14:15:20;;;;;;;20.87;13.03;;;;;;;;;;5034483;28;21140;-70
2020/12/30 14:17:45;;;;;;;19.13;12.13;;;;;;;;;;5029193;28;20247;-70